Gaston, Arkansas
Current Conditions -  °F | °C
As of 12:12 PM on Friday 19 Dec 2014 (Local Time) from KMWT Reporting Station
Overcast Overcast  
Wind Chill: 42°   Ceiling: 1100
Heat Index: 42°   Visibility: 10mi
Dew Point: 40°   Wind: 3mph
Humidity: 92%   Direction: NA
Pressure: 30.18"   Gusts: NA
Location:  34.537°N, 93.6725°W
Report Text: KMWT 191812Z AUTO VRB03KT 10SM SCT006 OVC011 06/04 A3018 RMK AO2 T00560044
Loading
Personal Weather Stations






























Interactive Weather Map New forecast layout! Learn more

10-Day Weather Forecast

Advertisements
Track Severe Weather on mobile